Time;durP1;ratioP1;P1;durP2;ratioP2;P2;SDS_P1;SDS_P2;PMS_P1;PMS_P2;Temp;Humidity;BMP_temperature;BMP_pressure;BME280_temperature;BME280_humidity;BME280_pressure;Samples;Min_cycle;Max_cycle;Signal;HPM_P1;HPM_P2
2022/06/29 00:00:38;;;;;;;8.33;4.83;;;;;;;17.80;69.46;101128.55;1761022;80;25835;-55
2022/06/29 00:03:07;;;;;;;4.35;3.45;;;;;;;17.88;69.45;101134.83;1759282;80;25887;-54
2022/06/29 00:05:33;;;;;;;6.85;3.33;;;;;;;17.82;69.55;101133.39;1758570;80;98698;-52
2022/06/29 00:08:00;;;;;;;4.95;3.08;;;;;;;17.76;69.53;101131.08;1768902;80;25821;-55
2022/06/29 00:10:27;;;;;;;4.78;3.52;;;;;;;17.73;69.73;101132.63;1761327;80;98696;-56
2022/06/29 00:12:54;;;;;;;8.95;3.58;;;;;;;17.72;69.78;101130.89;1759377;80;25791;-55
2022/06/29 00:15:23;;;;;;;13.50;3.95;;;;;;;17.71;69.90;101125.09;1757566;80;25862;-55
2022/06/29 00:17:49;;;;;;;4.42;3.42;;;;;;;17.66;69.70;101117.73;1753327;78;98709;-56
2022/06/29 00:20:15;;;;;;;7.28;4.03;;;;;;;17.59;69.93;101112.30;1754596;80;27052;-52
2022/06/29 00:22:44;;;;;;;6.95;4.42;;;;;;;17.57;69.90;101107.95;1756069;80;99358;-54
2022/06/29 00:25:18;;;;;;;3.80;3.40;;;;;;;17.55;70.01;101103.98;1756005;78;26159;-54
2022/06/29 00:27:44;;;;;;;4.37;3.27;;;;;;;17.52;70.05;101097.41;1752879;78;98942;-53
2022/06/29 00:30:12;;;;;;;6.83;4.95;;;;;;;17.51;70.10;101090.24;1776333;78;27906;-54
2022/06/29 00:32:41;;;;;;;4.67;3.33;;;;;;;17.48;70.24;101095.38;1752916;80;25747;-53
2022/06/29 00:35:10;;;;;;;7.50;3.20;;;;;;;17.48;70.29;101095.86;1753459;80;98755;-54
2022/06/29 00:37:36;;;;;;;7.05;3.77;;;;;;;17.46;70.22;101096.45;1756198;80;26190;-54
2022/06/29 00:40:04;;;;;;;5.85;4.62;;;;;;;17.41;70.28;101101.30;1754352;80;98772;-54
2022/06/29 00:42:31;;;;;;;7.87;4.58;;;;;;;17.40;70.48;101095.48;1758250;79;27509;-55
2022/06/29 00:44:57;;;;;;;8.10;5.05;;;;;;;17.40;70.47;101103.62;1722218;81;25772;-55
2022/06/29 00:47:23;;;;;;;6.12;5.00;;;;;;;17.36;70.51;101088.53;1704532;82;98565;-54
2022/06/29 00:49:51;;;;;;;12.93;5.47;;;;;;;17.33;70.57;101081.47;1696622;82;25858;-54
2022/06/29 00:52:22;;;;;;;10.48;6.00;;;;;;;17.28;70.61;101068.70;1704047;82;98939;-52
2022/06/29 00:54:56;;;;;;;8.05;5.37;;;;;;;17.26;70.70;101067.92;1706113;81;27612;-53
2022/06/29 00:57:28;;;;;;;7.00;6.03;;;;;;;17.25;70.80;101077.51;1694671;82;25882;-57
2022/06/29 00:59:59;;;;;;;7.80;5.72;;;;;;;17.23;70.86;101083.51;1700701;82;98439;-54
2022/06/29 01:02:32;;;;;;;7.15;5.62;;;;;;;17.18;70.91;101081.96;1666721;84;25816;-56
2022/06/29 01:04:57;;;;;;;9.95;5.10;;;;;;;17.18;71.03;101087.86;1701442;82;98617;-54
2022/06/29 01:07:29;;;;;;;5.35;4.20;;;;;;;17.13;71.07;101086.80;1699621;82;27401;-52
2022/06/29 01:09:58;;;;;;;10.08;5.92;;;;;;;17.09;71.18;101096.09;1697420;82;98936;-54
2022/06/29 01:12:26;;;;;;;5.08;4.30;;;;;;;17.07;71.28;101097.16;1695930;82;25814;-54
2022/06/29 01:14:53;;;;;;;9.05;4.03;;;;;;;17.04;71.34;101090.58;1666583;84;25885;-54
2022/06/29 01:17:22;;;;;;;7.00;3.92;;;;;;;17.01;71.39;101086.70;1694460;82;98759;-54
2022/06/29 01:19:50;;;;;;;5.97;4.10;;;;;;;17.00;71.47;101087.19;1688502;82;27484;-54
2022/06/29 01:22:23;;;;;;;5.62;3.87;;;;;;;17.00;71.53;101090.38;1694988;83;98939;-56
2022/06/29 01:24:50;;;;;;;4.85;3.67;;;;;;;16.98;71.62;101090.97;1656002;86;25889;-54
2022/06/29 01:27:19;;;;;;;4.12;3.72;;;;;;;16.95;71.59;101087.09;1689695;83;25796;-55
2022/06/29 01:29:46;;;;;;;9.25;4.30;;;;;;;16.89;71.69;101085.64;1717218;83;98670;-55
2022/06/29 01:32:12;;;;;;;6.53;3.83;;;;;;;16.84;71.77;101089.12;1714600;81;29603;-55
2022/06/29 01:34:38;;;;;;;5.58;3.52;;;;;;;16.82;71.89;101080.22;1727317;81;98763;-53
2022/06/29 01:37:06;;;;;;;7.05;4.55;;;;;;;16.81;72.05;101078.48;1739730;80;25695;-53
2022/06/29 01:39:37;;;;;;;5.00;3.87;;;;;;;16.80;72.12;101084.37;1741822;80;25894;-55
2022/06/29 01:42:05;;;;;;;7.72;4.83;;;;;;;16.74;72.15;101076.64;1732485;80;98454;-55
2022/06/29 01:44:33;;;;;;;5.95;4.50;;;;;;;16.72;72.29;101075.86;1741950;80;27474;-56
2022/06/29 01:47:03;;;;;;;7.50;5.30;;;;;;;16.67;72.33;101086.59;1734160;80;99106;-57
2022/06/29 01:49:33;;;;;;;7.97;5.28;;;;;;;16.60;72.43;101085.19;1735379;80;25968;-57
2022/06/29 01:51:58;;;;;;;8.10;5.28;;;;;;;16.50;72.58;101076.28;1737448;80;98958;-55
2022/06/29 01:54:25;;;;;;;6.10;5.25;;;;;;;16.46;72.58;101069.80;1756650;79;25715;-57
2022/06/29 01:56:53;;;;;;;6.70;5.08;;;;;;;16.39;72.80;101065.72;1768749;79;27470;-57
2022/06/29 01:59:20;;;;;;;7.50;5.05;;;;;;;16.34;72.92;101056.53;1766662;79;98764;-58
2022/06/29 02:01:48;;;;;;;7.62;6.10;;;;;;;16.26;73.03;101045.78;1771126;79;26352;-57
2022/06/29 02:04:15;;;;;;;6.35;5.55;;;;;;;16.19;73.25;101044.80;1767358;80;98839;-57
2022/06/29 02:06:42;;;;;;;9.63;5.72;;;;;;;16.15;73.39;101031.08;1772272;80;25766;-57
2022/06/29 02:09:08;;;;;;;7.30;5.08;;;;;;;16.09;73.58;101019.76;1771436;79;27357;-57
2022/06/29 02:11:35;;;;;;;9.75;5.40;;;;;;;16.04;73.80;101020.52;1768247;79;98703;-57
2022/06/29 02:14:04;;;;;;;7.25;5.47;;;;;;;16.00;73.91;101031.13;1770123;79;25786;-57
2022/06/29 02:16:30;;;;;;;5.58;4.90;;;;;;;15.95;74.07;101039.99;1770264;79;98712;-57
2022/06/29 02:18:58;;;;;;;8.95;4.83;;;;;;;15.90;74.20;101045.67;1771602;80;25788;-55
2022/06/29 02:21:24;;;;;;;8.43;5.35;;;;;;;15.88;74.24;101036.30;1771874;80;27529;-57
2022/06/29 02:23:50;;;;;;;8.83;4.67;;;;;;;15.88;74.32;101034.08;1701937;82;98767;-57
2022/06/29 02:26:16;;;;;;;9.63;4.97;;;;;;;15.87;74.36;101039.96;1701510;82;26145;-56
2022/06/29 02:28:42;;;;;;;6.87;5.67;;;;;;;15.87;74.45;101039.96;1726041;81;98718;-57
2022/06/29 02:36:38;;;;;;;7.70;5.12;;;;;;;15.93;74.73;101056.30;1731540;81;25811;-57
2022/06/29 02:39:04;;;;;;;8.38;5.97;;;;;;;15.97;74.75;101055.16;1735715;81;25797;-57
2022/06/29 02:41:30;;;;;;;7.72;6.28;;;;;;;15.96;74.74;101052.55;1736137;80;98627;-57
2022/06/29 02:43:56;;;;;;;7.87;5.85;;;;;;;15.99;74.85;101061.83;1767118;79;25706;-57
2022/06/29 02:46:24;;;;;;;11.10;6.65;;;;;;;16.02;74.82;101067.92;1769326;79;98864;-57
2022/06/29 02:48:50;;;;;;;8.35;6.53;;;;;;;16.03;74.69;101063.39;1771781;79;27146;-57
2022/06/29 02:51:16;;;;;;;7.58;6.70;;;;;;;16.00;74.65;101059.52;1770168;79;25753;-57
2022/06/29 02:53:43;;;;;;;7.80;6.30;;;;;;;15.93;74.81;101055.43;1735562;81;99090;-57
2022/06/29 02:56:09;;;;;;;13.18;7.33;;;;;;;15.91;74.80;101054.17;1768149;79;25460;-57
2022/06/29 02:58:35;;;;;;;9.75;6.87;;;;;;;15.88;74.90;101062.46;1765462;79;98753;-55
2022/06/29 03:01:03;;;;;;;6.90;6.08;;;;;;;15.89;75.02;101061.02;1769837;79;25960;-55
2022/06/29 03:03:28;;;;;;;10.43;7.22;;;;;;;15.88;75.09;101075.50;1773198;79;25752;-55
2022/06/29 03:05:54;;;;;;;8.98;6.72;;;;;;;15.91;75.12;101078.02;1767795;79;98811;-55
2022/06/29 03:08:20;;;;;;;8.68;6.90;;;;;;;15.92;75.18;101091.06;1767354;79;25996;-55
2022/06/29 03:10:46;;;;;;;11.73;7.20;;;;;;;15.89;75.16;101084.48;1769594;79;98836;-57
2022/06/29 03:13:12;;;;;;;9.90;7.60;;;;;;;15.91;75.33;101085.27;1767804;79;26137;-57
2022/06/29 03:15:38;;;;;;;13.72;8.05;;;;;;;15.95;75.28;101084.13;1769353;80;26437;-57
2022/06/29 03:18:05;;;;;;;13.08;7.40;;;;;;;15.91;75.27;101086.61;1767216;79;99657;-58
2022/06/29 03:20:32;;;;;;;13.75;7.33;;;;;;;15.90;75.37;101084.39;1763985;79;25824;-56
2022/06/29 03:22:59;;;;;;;14.78;6.75;;;;;;;15.89;75.38;101079.94;1764523;79;98951;-57
2022/06/29 03:25:25;;;;;;;11.00;6.87;;;;;;;15.84;75.52;101063.13;1764759;79;26309;-57
2022/06/29 03:27:51;;;;;;;11.03;7.17;;;;;;;15.90;75.60;101074.92;1760791;80;99039;-57
2022/06/29 03:30:18;;;;;;;8.73;6.42;;;;;;;15.96;75.68;101080.45;1767704;79;25766;-57
2022/06/29 03:32:45;;;;;;;8.30;6.28;;;;;;;16.04;75.76;101088.11;1761327;79;25790;-56
2022/06/29 03:35:10;;;;;;;9.48;6.87;;;;;;;16.06;75.72;101083.01;1768268;79;98618;-56
2022/06/29 03:37:38;;;;;;;11.53;8.05;;;;;;;16.11;75.78;101090.37;1762215;79;25803;-57
2022/06/29 03:40:05;;;;;;;13.03;6.80;;;;;;;16.17;75.73;101090.00;1761479;79;99007;-55
2022/06/29 03:42:32;;;;;;;9.20;6.62;;;;;;;16.16;75.73;101093.67;1764400;79;25813;-57
2022/06/29 03:44:59;;;;;;;12.28;6.95;;;;;;;16.17;75.67;101099.47;1769231;80;25856;-57
2022/06/29 03:47:29;;;;;;;13.93;7.12;;;;;;;16.19;75.78;101097.55;1765289;79;99053;-57
2022/06/29 03:49:56;;;;;;;15.93;7.75;;;;;;;16.24;75.82;101099.98;1764952;80;26100;-57
2022/06/29 03:52:24;;;;;;;11.25;6.58;;;;;;;16.28;75.80;101108.30;1764486;79;99003;-56
2022/06/29 03:54:50;;;;;;;11.68;6.65;;;;;;;16.35;75.92;101109.67;1763552;79;26231;-57
2022/06/29 03:57:16;;;;;;;14.33;6.30;;;;;;;16.44;75.93;101102.36;1770189;79;25876;-57
2022/06/29 03:59:42;;;;;;;8.95;6.10;;;;;;;16.51;75.87;101102.86;1767096;80;99217;-57
2022/06/29 04:02:08;;;;;;;14.78;6.42;;;;;;;16.52;75.85;101096.48;1769142;79;26286;-57
2022/06/29 04:04:35;;;;;;;7.85;5.35;;;;;;;16.61;75.94;101097.75;1764281;79;98865;-57
2022/06/29 04:07:03;;;;;;;10.40;6.10;;;;;;;16.67;75.86;101094.70;1771329;79;27510;-57
2022/06/29 04:09:30;;;;;;;7.95;5.00;;;;;;;16.72;75.82;101098.00;1772624;79;25817;-57
2022/06/29 04:11:58;;;;;;;6.03;4.58;;;;;;;16.73;75.73;101094.33;1765940;80;98734;-58
2022/06/29 04:14:27;;;;;;;10.43;4.70;;;;;;;16.77;75.71;101093.17;1767668;79;27229;-57
2022/06/29 04:16:57;;;;;;;7.55;5.10;;;;;;;16.80;75.63;101088.92;1759789;79;99394;-58
2022/06/29 04:19:24;;;;;;;8.20;4.37;;;;;;;16.80;75.57;101084.86;1762679;80;25881;-57
2022/06/29 04:21:50;;;;;;;11.68;4.87;;;;;;;16.79;75.55;101080.41;1765809;80;98861;-57
2022/06/29 04:24:17;;;;;;;5.22;4.47;;;;;;;16.81;75.49;101078.48;1771309;79;27436;-57
2022/06/29 04:26:44;;;;;;;8.00;4.28;;;;;;;16.78;75.31;101081.37;1770960;79;25819;-57
2022/06/29 04:29:11;;;;;;;5.28;4.15;;;;;;;16.68;75.27;101091.03;1769525;79;98682;-57
2022/06/29 04:31:40;;;;;;;6.47;3.92;;;;;;;16.61;75.33;101087.80;1768089;79;25927;-57
2022/06/29 04:34:06;;;;;;;6.35;4.37;;;;;;;16.64;75.46;101086.73;1769608;79;98778;-57
2022/06/29 04:36:33;;;;;;;8.75;4.50;;;;;;;16.67;75.37;101087.45;1774137;79;27425;-57
2022/06/29 04:38:58;;;;;;;6.60;4.40;;;;;;;16.69;75.32;101081.95;1763303;80;25789;-57
2022/06/29 04:41:24;;;;;;;5.95;3.95;;;;;;;16.68;75.37;101083.78;1768990;79;98668;-57
2022/06/29 04:43:53;;;;;;;7.83;4.80;;;;;;;16.69;75.27;101073.83;1768501;79;27482;-57
2022/06/29 04:46:22;;;;;;;6.65;4.47;;;;;;;16.71;75.29;101073.25;1768913;80;98817;-57
2022/06/29 04:48:53;;;;;;;9.53;4.92;;;;;;;16.70;75.28;101084.56;1767789;79;27401;-57
2022/06/29 04:51:19;;;;;;;13.45;5.45;;;;;;;16.71;75.32;101094.91;1771107;80;26429;-56
2022/06/29 04:53:47;;;;;;;11.53;5.70;;;;;;;16.73;75.29;101097.03;1767584;79;98914;-56
2022/06/29 04:56:15;;;;;;;10.82;5.28;;;;;;;16.76;75.31;101086.89;1766819;79;26036;-56
2022/06/29 04:58:43;;;;;;;6.70;5.47;;;;;;;16.76;75.24;101086.89;1778849;78;98827;-56
2022/06/29 05:01:09;;;;;;;9.30;5.08;;;;;;;16.70;75.22;101099.93;1779560;78;27387;-56
2022/06/29 05:03:35;;;;;;;10.55;5.05;;;;;;;16.73;75.43;101093.84;1777116;78;25817;-55
2022/06/29 05:06:02;;;;;;;7.10;4.55;;;;;;;16.83;75.47;101093.66;1781699;78;99208;-56
2022/06/29 05:08:29;;;;;;;5.80;4.75;;;;;;;16.96;75.52;101089.70;1782346;79;25789;-56
2022/06/29 05:10:56;;;;;;;11.00;4.25;;;;;;;17.07;75.47;101080.42;1775282;78;98566;-55
2022/06/29 05:13:22;;;;;;;7.00;4.20;;;;;;;17.22;75.57;101071.80;1783282;79;26443;-57
2022/06/29 05:15:48;;;;;;;13.85;4.17;;;;;;;17.44;75.61;101068.09;1782984;79;98853;-57
2022/06/29 05:18:16;;;;;;;9.88;4.60;;;;;;;17.62;75.44;101078.70;1780883;78;26626;-57
2022/06/29 05:20:45;;;;;;;5.62;4.03;;;;;;;17.77;75.36;101084.50;1778979;79;27522;-64
2022/06/29 05:23:13;;;;;;;9.00;3.85;;;;;;;17.95;75.44;101085.11;1777033;78;98599;-64
2022/06/29 05:25:40;;;;;;;6.20;3.60;;;;;;;18.16;75.41;101087.25;1786897;78;27477;-62
2022/06/29 05:28:08;;;;;;;7.28;3.90;;;;;;;18.37;75.20;101088.08;1779699;78;98946;-62
2022/06/29 05:30:37;;;;;;;8.25;4.20;;;;;;;18.42;74.87;101078.65;1783733;78;25979;-62
2022/06/29 05:33:06;;;;;;;8.98;3.70;;;;;;;18.38;74.57;101067.63;1782021;78;25590;-62
2022/06/29 05:35:36;;;;;;;13.13;4.42;;;;;;;18.38;74.57;101060.84;1777252;78;98668;-64
2022/06/29 05:38:03;;;;;;;6.42;4.03;;;;;;;18.33;74.40;101059.41;1781710;79;27514;-63
2022/06/29 05:40:32;;;;;;;8.95;3.62;;;;;;;18.32;74.31;101062.62;1780972;78;99076;-63
2022/06/29 05:43:00;;;;;;;12.13;3.72;;;;;;;18.37;74.40;101061.81;1780981;78;25749;-63
2022/06/29 05:45:28;;;;;;;5.65;3.10;;;;;;;18.36;74.02;101062.78;1777058;78;26096;-62
2022/06/29 05:47:56;;;;;;;8.20;3.30;;;;;;;18.33;74.05;101065.71;1780741;79;98824;-63
2022/06/29 05:50:23;;;;;;;10.55;3.60;;;;;;;18.42;74.10;101066.44;1776558;78;29520;-63
2022/06/29 05:52:51;;;;;;;7.55;3.37;;;;;;;18.53;73.88;101063.46;1718248;81;99283;-62
2022/06/29 05:55:18;;;;;;;15.20;3.77;;;;;;;18.54;73.54;101057.92;1782580;78;25759;-63
2022/06/29 05:57:46;;;;;;;7.92;3.87;;;;;;;18.56;73.60;101055.97;1774959;79;99047;-63
2022/06/29 06:00:15;;;;;;;11.18;4.20;;;;;;;18.63;73.37;101053.73;1776872;79;25702;-64
2022/06/29 06:02:41;;;;;;;12.55;3.22;;;;;;;18.70;73.29;101052.32;1731706;81;27506;-62
2022/06/29 06:05:09;;;;;;;7.50;3.37;;;;;;;18.76;73.11;101059.55;1770434;79;98877;-63
2022/06/29 06:07:36;;;;;;;10.98;3.35;;;;;;;18.71;73.08;101045.91;1769604;79;25814;-62
2022/06/29 06:10:06;;;;;;;6.17;3.15;;;;;;;18.88;72.86;101061.88;1772867;79;98913;-62
2022/06/29 06:12:32;;;;;;;10.90;2.85;;;;;;;18.93;72.65;101069.70;1771922;79;26449;-62
2022/06/29 06:15:01;;;;;;;8.55;2.90;;;;;;;18.93;72.32;101061.55;1768798;79;27479;-62
2022/06/29 06:17:28;;;;;;;9.73;2.72;;;;;;;18.89;71.70;101059.54;1765175;79;98711;-62
2022/06/29 06:19:55;;;;;;;7.83;3.22;;;;;;;18.76;71.98;101048.68;1771789;79;25987;-62
2022/06/29 06:22:21;;;;;;;4.65;2.65;;;;;;;18.76;71.98;101048.68;1767974;79;98875;-62
2022/06/29 06:24:48;;;;;;;11.90;2.58;;;;;;;18.92;71.90;101071.55;1773430;79;25746;-64
2022/06/29 06:27:14;;;;;;;15.85;4.25;;;;;;;18.96;71.59;101068.98;1771849;80;27456;-63
2022/06/29 06:29:42;;;;;;;6.55;2.58;;;;;;;18.96;71.56;101073.55;1771781;80;98807;-62
2022/06/29 06:32:08;;;;;;;8.88;3.00;;;;;;;19.00;71.17;101075.08;1767769;79;25773;-64
2022/06/29 06:34:36;;;;;;;7.87;3.40;;;;;;;19.01;71.54;101036.92;1703793;82;98743;-62
2022/06/29 06:37:02;;;;;;;8.63;3.72;;;;;;;19.01;71.54;101036.92;1732926;81;25692;-63
2022/06/29 06:39:29;;;;;;;7.25;2.67;;;;;;;19.28;71.11;101048.13;1701314;82;28352;-63
2022/06/29 06:41:58;;;;;;;7.28;2.90;;;;;;;19.53;70.93;101060.81;1695171;83;98621;-62
2022/06/29 06:44:28;;;;;;;6.17;2.67;;;;;;;19.53;70.93;101060.81;1770266;79;25648;-62
2022/06/29 06:46:54;;;;;;;5.72;2.30;;;;;;;19.62;70.80;101068.30;1772648;79;99025;-63
2022/06/29 06:49:23;;;;;;;7.45;2.92;;;;;;;19.66;70.72;101071.16;1773946;79;25820;-62
2022/06/29 06:51:48;;;;;;;8.13;3.08;;;;;;;19.67;70.52;101064.25;1771274;79;98981;-63
2022/06/29 06:54:14;;;;;;;5.95;2.72;;;;;;;19.72;70.47;101058.46;1765361;80;26268;-63
2022/06/29 06:56:41;;;;;;;7.33;2.75;;;;;;;19.62;70.33;101034.30;1767304;79;25748;-63
2022/06/29 06:59:07;;;;;;;5.97;2.92;;;;;;;19.82;70.25;101045.91;1770071;79;99315;-63
2022/06/29 07:01:35;;;;;;;6.37;3.22;;;;;;;19.77;69.69;101042.67;1770856;79;25733;-62
2022/06/29 07:04:01;;;;;;;8.20;2.60;;;;;;;19.77;69.69;101042.67;1769627;79;98796;-63
2022/06/29 07:06:28;;;;;;;7.80;2.92;;;;;;;19.72;69.70;101037.57;1768521;79;25760;-62
2022/06/29 07:08:54;;;;;;;7.17;2.52;;;;;;;19.68;69.65;101038.78;1768675;79;25784;-62
2022/06/29 07:11:23;;;;;;;9.50;2.98;;;;;;;19.74;69.58;101030.66;1767497;79;98731;-61
2022/06/29 07:13:49;;;;;;;6.28;2.80;;;;;;;19.74;69.40;101024.73;1763149;79;26151;-61
2022/06/29 07:16:15;;;;;;;9.65;2.87;;;;;;;19.76;69.28;101024.61;1770132;79;98786;-62
2022/06/29 07:18:41;;;;;;;7.10;3.17;;;;;;;19.75;69.26;101033.27;1745731;79;25781;-62
2022/06/29 07:21:09;;;;;;;10.15;3.50;;;;;;;19.77;69.10;101031.30;1696945;84;25890;-62
2022/06/29 07:23:34;;;;;;;6.42;1.98;;;;;;;19.61;68.88;101015.75;1767553;79;99173;-62
2022/06/29 07:26:02;;;;;;;8.20;3.02;;;;;;;19.77;68.97;101028.58;1771373;79;26492;-63
2022/06/29 07:28:28;;;;;;;9.83;3.40;;;;;;;19.84;68.72;101026.75;1765806;79;98825;-63
2022/06/29 07:30:55;;;;;;;11.40;3.02;;;;;;;19.87;68.88;101023.80;1698949;82;25822;-61
2022/06/29 07:33:22;;;;;;;11.15;3.17;;;;;;;20.04;68.90;101013.85;1772847;79;26438;-62
2022/06/29 07:35:50;;;;;;;7.62;3.27;;;;;;;20.17;68.61;101013.28;1766929;79;98952;-61
2022/06/29 07:38:17;;;;;;;4.33;3.05;;;;;;;20.28;68.51;101011.08;1772491;79;25777;-61
2022/06/29 07:40:43;;;;;;;6.53;2.83;;;;;;;20.41;68.56;101018.20;1771606;79;98765;-63
2022/06/29 07:43:09;;;;;;;6.35;2.55;;;;;;;20.52;68.08;101007.83;1771744;79;27144;-62
2022/06/29 07:45:36;;;;;;;4.30;2.40;;;;;;;20.49;68.04;101012.65;1704417;82;26481;-61
2022/06/29 07:48:05;;;;;;;4.70;2.60;;;;;;;20.51;67.98;101011.54;1700309;82;98631;-62
2022/06/29 07:50:31;;;;;;;7.87;2.37;;;;;;;20.38;67.69;101015.72;1691552;82;26595;-62
2022/06/29 07:52:57;;;;;;;5.90;2.50;;;;;;;20.28;67.61;101017.39;1724691;81;99075;-62
2022/06/29 07:55:24;;;;;;;8.68;3.00;;;;;;;20.25;67.69;101008.11;1726695;81;26205;-62
2022/06/29 07:57:50;;;;;;;13.30;3.37;;;;;;;20.25;67.46;101009.47;1726255;81;98901;-63
2022/06/29 08:00:16;;;;;;;6.17;3.00;;;;;;;20.23;67.50;101011.44;1732661;81;25748;-63
2022/06/29 08:02:42;;;;;;;6.37;2.75;;;;;;;20.25;67.44;101021.72;1773501;79;25815;-64
2022/06/29 08:05:08;;;;;;;5.47;2.77;;;;;;;20.39;67.54;101017.95;1768819;79;99154;-63
2022/06/29 08:07:35;;;;;;;4.17;2.10;;;;;;;20.53;67.35;101012.78;1767158;79;27209;-62
2022/06/29 08:10:03;;;;;;;3.62;2.50;;;;;;;20.55;67.30;101010.30;1768948;79;99023;-62
2022/06/29 08:12:29;;;;;;;12.43;2.85;;;;;;;20.74;67.37;101013.80;1772708;79;25971;-62
2022/06/29 08:14:55;;;;;;;5.80;2.52;;;;;;;20.82;67.08;101016.74;1765120;79;25733;-62
2022/06/29 08:17:21;;;;;;;16.65;3.50;;;;;;;20.73;66.83;101011.56;1767796;79;98788;-62
2022/06/29 08:19:50;;;;;;;15.63;3.20;;;;;;;20.69;66.71;101006.48;1770181;79;25896;-63
2022/06/29 08:22:16;;;;;;;10.82;2.92;;;;;;;20.64;66.64;101004.62;1771127;79;99829;-62
2022/06/29 08:24:43;;;;;;;8.70;2.60;;;;;;;20.64;66.63;100995.95;1768853;79;25825;-63
2022/06/29 08:27:11;;;;;;;8.55;2.33;;;;;;;20.69;66.62;100991.50;1774773;79;26345;-62
2022/06/29 08:29:37;;;;;;;8.35;2.33;;;;;;;20.62;66.35;100992.48;1766958;79;98714;-62
2022/06/29 08:32:04;;;;;;;10.82;3.15;;;;;;;20.57;66.28;100997.44;1766503;79;25741;-62
2022/06/29 08:34:39;;;;;;;5.78;2.30;;;;;;;20.70;66.45;100994.59;1767006;80;98773;-62
2022/06/29 08:37:06;;;;;;;5.22;2.12;;;;;;;20.83;66.28;100997.17;1704596;81;26066;-62
2022/06/29 08:39:31;;;;;;;9.03;2.47;;;;;;;20.87;66.03;101001.38;1704148;81;25844;-63
2022/06/29 08:42:03;;;;;;;6.75;2.37;;;;;;;20.87;65.93;101000.89;1705196;82;98664;-63
2022/06/29 08:44:36;;;;;;;9.73;2.85;;;;;;;20.97;66.05;100996.43;1704136;81;26497;-64
2022/06/29 08:47:08;;;;;;;8.33;2.60;;;;;;;21.18;66.02;100991.58;1698842;81;98658;-63
2022/06/29 08:49:39;;;;;;;11.18;2.62;;;;;;;21.25;65.69;100995.07;1705161;81;25785;-63
2022/06/29 08:52:07;;;;;;;7.58;1.85;;;;;;;21.15;65.38;100992.70;1700230;82;98929;-63
2022/06/29 08:54:37;;;;;;;8.75;2.75;;;;;;;21.09;65.29;101002.73;1767658;79;27460;-62
2022/06/29 08:57:12;;;;;;;6.37;2.15;;;;;;;21.07;65.50;101006.95;1771553;80;25832;-64
2022/06/29 08:59:42;;;;;;;5.83;2.62;;;;;;;21.27;65.58;101009.45;1767595;79;98663;-64
2022/06/29 09:02:13;;;;;;;4.97;2.50;;;;;;;21.48;65.57;101012.26;1706026;81;25600;-63
2022/06/29 09:04:40;;;;;;;5.85;2.40;;;;;;;21.67;65.21;101019.77;1700987;81;98799;-62
2022/06/29 09:07:05;;;;;;;4.05;1.92;;;;;;;21.73;64.97;101015.16;1705115;81;27559;-63
2022/06/29 09:09:35;;;;;;;9.15;3.00;;;;;;;21.70;64.71;101014.92;1701879;81;25551;-62
2022/06/29 09:12:03;;;;;;;7.03;2.90;;;;;;;21.73;64.56;101015.66;1695068;82;99047;-62
2022/06/29 09:14:33;;;;;;;7.80;2.58;;;;;;;21.76;64.49;101014.04;1703964;81;26538;-63
2022/06/29 09:17:01;;;;;;;5.03;2.15;;;;;;;21.92;64.36;101013.11;1721637;81;98614;-63
2022/06/29 09:19:39;;;;;;;8.30;2.35;;;;;;;22.00;64.18;101014.69;1699687;82;28121;-63
2022/06/29 09:22:08;;;;;;;6.08;2.10;;;;;;;22.05;63.60;101019.29;1765105;79;98920;-63
2022/06/29 09:24:34;;;;;;;8.45;2.87;;;;;;;21.98;63.44;101011.22;1769105;79;25777;-63
2022/06/29 09:27:03;;;;;;;9.25;2.15;;;;;;;22.02;63.52;101004.04;1766894;80;27565;-62
2022/06/29 09:29:39;;;;;;;5.83;2.17;;;;;;;22.12;63.26;100997.79;1767372;79;99291;-62
2022/06/29 09:32:09;;;;;;;6.15;2.37;;;;;;;22.18;63.14;100994.53;1772628;79;27439;-63
2022/06/29 09:34:45;;;;;;;18.10;2.80;;;;;;;22.20;62.89;100987.94;1766428;79;98825;-63
2022/06/29 09:37:21;;;;;;;11.50;2.50;;;;;;;22.38;62.79;100985.97;1768080;80;25812;-64
2022/06/29 09:39:52;;;;;;;4.87;2.20;;;;;;;22.43;62.44;100982.34;1766629;80;98944;-63
2022/06/29 09:42:27;;;;;;;6.65;1.67;;;;;;;22.53;61.82;100981.39;1768936;79;25763;-62
2022/06/29 09:44:54;;;;;;;6.58;1.82;;;;;;;22.40;61.35;100979.87;1761498;79;26898;-62
2022/06/29 09:47:24;;;;;;;8.23;2.12;;;;;;;22.25;61.16;100989.77;1769911;80;98772;-63
2022/06/29 09:50:02;;;;;;;5.12;1.82;;;;;;;22.18;61.10;100973.55;1771228;79;25790;-63
2022/06/29 09:52:33;;;;;;;3.92;2.00;;;;;;;22.16;60.98;100978.78;1767810;79;98702;-63
2022/06/29 09:55:00;;;;;;;9.85;2.77;;;;;;;22.10;60.36;100974.72;1769990;79;25750;-62
2022/06/29 09:57:31;;;;;;;12.35;2.85;;;;;;;22.07;60.54;100972.75;1767273;80;28239;-63
2022/06/29 10:02:55;;;;;;;7.97;2.35;;;;;;;22.01;60.12;100966.78;1724643;81;26475;-62
2022/06/29 10:05:54;;;;;;;9.88;2.47;;;;;;;21.96;60.31;100963.59;1726378;81;98720;-62
2022/06/29 10:08:01;;;;;;;5.45;2.30;;;;;;;22.13;60.53;100965.39;1719706;81;25874;-63
2022/06/29 10:10:27;;;;;;;4.72;2.10;;;;;;;22.33;60.48;100956.33;1720526;81;98930;-63
2022/06/29 10:13:42;;;;;;;7.58;2.65;;;;;;;22.38;60.16;100968.22;1725588;81;26007;-63
2022/06/29 10:16:17;;;;;;;4.53;2.30;;;;;;;22.52;59.95;100966.50;1715941;81;25904;-64
2022/06/29 10:19:10;;;;;;;5.95;1.80;;;;;;;22.50;59.67;100965.27;1722027;81;26620;-63
2022/06/29 10:21:36;;;;;;;6.55;1.85;;;;;;;22.74;59.82;100955.41;1726119;81;26295;-63
2022/06/29 10:24:03;;;;;;;7.65;2.00;;;;;;;22.87;59.37;100956.06;1725490;81;98682;-63
2022/06/29 10:26:39;;;;;;;7.15;1.90;;;;;;;23.04;59.34;100964.61;1744929;80;25814;-62
2022/06/29 10:29:11;;;;;;;4.72;1.92;;;;;;;23.23;59.18;100969.64;1762853;79;98690;-63
2022/06/29 10:32:01;;;;;;;7.42;1.90;;;;;;;23.37;58.60;100980.69;1762841;79;25830;-62
2022/06/29 10:34:38;;;;;;;6.75;1.70;;;;;;;23.32;57.90;100976.14;1759300;80;99043;-61
2022/06/29 10:37:17;;;;;;;5.87;2.00;;;;;;;23.28;57.54;100969.22;1763976;79;29419;-63
2022/06/29 10:39:49;;;;;;;10.78;1.95;;;;;;;23.21;56.94;100957.11;1765164;79;27079;-62
2022/06/29 10:45:17;;;;;;;3.77;1.50;;;;;;;23.45;57.17;100963.53;1765968;79;26389;-62
2022/06/29 10:48:05;;;;;;;7.65;2.33;;;;;;;23.70;56.67;100962.15;1765736;79;98788;-62
2022/06/29 10:50:30;;;;;;;4.62;2.67;;;;;;;23.69;56.21;100957.69;1764124;79;27467;-62
2022/06/29 10:53:04;;;;;;;2.47;1.85;;;;;;;23.71;55.99;100941.48;1767066;79;98672;-61
2022/06/29 10:55:34;;;;;;;11.93;2.47;;;;;;;23.85;55.85;100937.45;1765966;80;25769;-63
2022/06/29 10:58:02;;;;;;;5.87;1.60;;;;;;;24.01;55.73;100924.03;1773244;79;25839;-63
2022/06/29 11:00:34;;;;;;;4.92;1.87;;;;;;;24.11;54.85;100925.38;1770221;79;98532;-64
2022/06/29 11:03:11;;;;;;;6.70;2.17;;;;;;;24.11;54.58;100918.03;1768186;80;27453;-62
2022/06/29 11:12:01;;;;;;;5.15;1.52;;;;;;;24.12;53.11;100909.31;1764469;79;98955;-62
2022/06/29 11:13:48;;;;;;;1.70;1.60;;;;;;;23.72;52.33;100908.13;1768851;79;25797;-63
2022/06/29 11:16:16;;;;;;;3.65;1.50;;;;;;;23.77;52.67;100886.66;1769153;79;98946;-63
2022/06/29 11:18:44;;;;;;;6.40;1.75;;;;;;;23.96;53.01;100883.91;1769845;79;25658;-63
2022/06/29 11:21:16;;;;;;;5.17;1.57;;;;;;;24.03;51.80;100877.33;1767977;80;25869;-63
2022/06/29 11:23:42;;;;;;;3.40;1.60;;;;;;;24.05;51.79;100873.44;1769322;79;98759;-64
2022/06/29 11:26:11;;;;;;;2.35;1.50;;;;;;;24.25;51.63;100874.25;1771753;79;25773;-63
2022/06/29 11:28:40;;;;;;;3.72;1.85;;;;;;;24.34;51.29;100869.78;1768831;79;98981;-63
2022/06/29 11:31:12;;;;;;;3.58;1.22;;;;;;;24.42;51.20;100872.63;1765210;79;25789;-63
2022/06/29 11:33:47;;;;;;;2.42;1.55;;;;;;;24.68;50.93;100871.44;1770566;79;26243;-62
2022/06/29 11:36:28;;;;;;;3.40;1.82;;;;;;;24.85;50.50;100881.08;1770061;79;98674;-62
2022/06/29 11:39:06;;;;;;;1.85;1.15;;;;;;;25.11;50.34;100873.53;1704641;81;25842;-62
2022/06/29 11:44:30;;;;;;;4.50;1.10;;;;;;;24.99;49.03;100872.88;1766537;79;26270;-62
2022/06/29 11:46:58;;;;;;;3.12;1.12;;;;;;;24.92;49.38;100869.86;1764619;79;98984;-62
2022/06/29 11:49:42;;;;;;;5.70;1.50;;;;;;;25.06;49.45;100866.27;1770920;79;25981;-62